sensor_id;sensor_type;location;lat;lon;timestamp;pressure;altitude;pressure_sealevel;temperature;humidity
30875;BME280;17581;43.222;27.924;2022-10-19T00:01:50;101349.72;;;13.93;77.49
30875;BME280;17581;43.222;27.924;2022-10-19T00:04:16;101349.22;;;13.88;77.65
30875;BME280;17581;43.222;27.924;2022-10-19T00:06:41;101346.41;;;13.90;77.60
30875;BME280;17581;43.222;27.924;2022-10-19T00:09:09;101337.22;;;13.81;77.65
30875;BME280;17581;43.222;27.924;2022-10-19T00:11:39;101341.63;;;13.82;78.12
30875;BME280;17581;43.222;27.924;2022-10-19T00:14:05;101340.66;;;13.83;78.59
30875;BME280;17581;43.222;27.924;2022-10-19T00:16:33;101314.63;;;13.71;78.76
30875;BME280;17581;43.222;27.924;2022-10-19T00:19:02;101335.69;;;13.88;78.83
30875;BME280;17581;43.222;27.924;2022-10-19T00:21:28;101340.75;;;13.93;78.93
30875;BME280;17581;43.222;27.924;2022-10-19T00:23:54;101323.53;;;13.94;79.26
30875;BME280;17581;43.222;27.924;2022-10-19T00:26:20;101323.13;;;13.98;79.24
30875;BME280;17581;43.222;27.924;2022-10-19T00:28:45;101304.19;;;13.98;79.23
30875;BME280;17581;43.222;27.924;2022-10-19T00:31:16;101295.22;;;13.98;79.25
30875;BME280;17581;43.222;27.924;2022-10-19T00:33:43;101306.53;;;14.03;79.32
30875;BME280;17581;43.222;27.924;2022-10-19T00:36:27;101304.69;;;14.03;79.24
30875;BME280;17581;43.222;27.924;2022-10-19T00:38:54;101294.38;;;13.97;79.11
30875;BME280;17581;43.222;27.924;2022-10-19T00:41:21;101289.56;;;14.01;78.80
30875;BME280;17581;43.222;27.924;2022-10-19T00:43:54;101294.25;;;13.99;78.48
30875;BME280;17581;43.222;27.924;2022-10-19T00:46:20;101286.75;;;13.91;78.04
30875;BME280;17581;43.222;27.924;2022-10-19T00:48:46;101285.78;;;13.92;77.46
30875;BME280;17581;43.222;27.924;2022-10-19T00:51:12;101275.22;;;13.89;76.91
30875;BME280;17581;43.222;27.924;2022-10-19T00:53:38;101277.56;;;13.94;76.81
30875;BME280;17581;43.222;27.924;2022-10-19T00:56:09;101274.97;;;13.92;76.39
30875;BME280;17581;43.222;27.924;2022-10-19T00:58:35;101270.69;;;13.90;76.14
30875;BME280;17581;43.222;27.924;2022-10-19T01:01:02;101275.50;;;13.86;76.16
30875;BME280;17581;43.222;27.924;2022-10-19T01:03:28;101274.63;;;13.86;76.04
30875;BME280;17581;43.222;27.924;2022-10-19T01:05:54;101265.19;;;13.80;75.83
30875;BME280;17581;43.222;27.924;2022-10-19T01:08:20;101260.31;;;13.74;75.66
30875;BME280;17581;43.222;27.924;2022-10-19T01:22:31;101253.94;;;13.64;75.39
30875;BME280;17581;43.222;27.924;2022-10-19T01:25:22;101249.31;;;13.55;75.52
30875;BME280;17581;43.222;27.924;2022-10-19T01:36:08;101231.31;;;13.44;75.84
30875;BME280;17581;43.222;27.924;2022-10-19T01:38:43;101243.00;;;13.45;76.12
30875;BME280;17581;43.222;27.924;2022-10-19T01:41:16;101227.88;;;13.42;76.92
30875;BME280;17581;43.222;27.924;2022-10-19T01:43:57;101225.06;;;13.44;77.67
30875;BME280;17581;43.222;27.924;2022-10-19T01:49:28;101222.47;;;13.42;78.07
30875;BME280;17581;43.222;27.924;2022-10-19T01:51:56;101225.56;;;13.38;78.50
30875;BME280;17581;43.222;27.924;2022-10-19T01:54:24;101214.75;;;13.38;78.81
30875;BME280;17581;43.222;27.924;2022-10-19T01:56:53;101212.91;;;13.38;78.89
30875;BME280;17581;43.222;27.924;2022-10-19T01:59:22;101177.50;;;13.21;79.39
30875;BME280;17581;43.222;27.924;2022-10-19T02:01:48;101201.97;;;13.40;79.51
30875;BME280;17581;43.222;27.924;2022-10-19T02:04:18;101193.88;;;13.40;79.81
30875;BME280;17581;43.222;27.924;2022-10-19T02:06:44;101200.84;;;13.42;79.78
30875;BME280;17581;43.222;27.924;2022-10-19T02:09:10;101207.13;;;13.43;79.78
30875;BME280;17581;43.222;27.924;2022-10-19T02:11:53;101168.66;;;13.19;79.83
30875;BME280;17581;43.222;27.924;2022-10-19T02:14:29;101198.28;;;13.41;79.90
30875;BME280;17581;43.222;27.924;2022-10-19T02:17:04;101200.72;;;13.44;80.34
30875;BME280;17581;43.222;27.924;2022-10-19T02:19:30;101187.22;;;13.44;79.95
30875;BME280;17581;43.222;27.924;2022-10-19T02:21:56;101191.16;;;13.40;79.45
30875;BME280;17581;43.222;27.924;2022-10-19T02:24:22;101191.75;;;13.43;79.64
30875;BME280;17581;43.222;27.924;2022-10-19T02:26:47;101183.31;;;13.37;79.48
30875;BME280;17581;43.222;27.924;2022-10-19T02:29:13;101186.53;;;13.31;79.49
30875;BME280;17581;43.222;27.924;2022-10-19T02:31:39;101185.34;;;13.24;79.23
30875;BME280;17581;43.222;27.924;2022-10-19T02:34:05;101183.38;;;13.26;79.15
30875;BME280;17581;43.222;27.924;2022-10-19T02:36:31;101180.22;;;13.21;79.48
30875;BME280;17581;43.222;27.924;2022-10-19T02:38:57;101180.47;;;13.18;79.43
30875;BME280;17581;43.222;27.924;2022-10-19T02:41:33;101186.13;;;13.15;79.96
30875;BME280;17581;43.222;27.924;2022-10-19T02:47:02;101191.78;;;13.12;80.54
30875;BME280;17581;43.222;27.924;2022-10-19T02:49:32;101190.06;;;13.11;80.90
30875;BME280;17581;43.222;27.924;2022-10-19T02:52:00;101150.53;;;12.87;80.47
30875;BME280;17581;43.222;27.924;2022-10-19T02:54:27;101171.25;;;13.09;80.12
30875;BME280;17581;43.222;27.924;2022-10-19T02:56:53;101183.69;;;13.12;79.61
30875;BME280;17581;43.222;27.924;2022-10-19T02:59:18;101184.66;;;13.11;79.28
30875;BME280;17581;43.222;27.924;2022-10-19T03:01:44;101178.59;;;13.07;79.24
30875;BME280;17581;43.222;27.924;2022-10-19T03:04:09;101151.53;;;12.86;78.47
30875;BME280;17581;43.222;27.924;2022-10-19T03:06:35;101176.06;;;12.94;78.07
30875;BME280;17581;43.222;27.924;2022-10-19T03:09:00;101171.41;;;12.85;78.06
30875;BME280;17581;43.222;27.924;2022-10-19T03:11:25;101175.59;;;12.89;77.88
30875;BME280;17581;43.222;27.924;2022-10-19T03:13:51;101138.56;;;12.69;76.91
30875;BME280;17581;43.222;27.924;2022-10-19T03:16:16;101166.53;;;12.79;77.31
30875;BME280;17581;43.222;27.924;2022-10-19T03:18:42;101155.50;;;12.71;76.85
30875;BME280;17581;43.222;27.924;2022-10-19T03:21:09;101136.88;;;12.57;76.83
30875;BME280;17581;43.222;27.924;2022-10-19T03:23:36;101149.38;;;12.58;76.47
30875;BME280;17581;43.222;27.924;2022-10-19T03:26:02;101149.16;;;12.39;76.76
30875;BME280;17581;43.222;27.924;2022-10-19T03:28:28;101156.28;;;12.40;76.78
30875;BME280;17581;43.222;27.924;2022-10-19T03:30:53;101148.78;;;12.32;76.81
30875;BME280;17581;43.222;27.924;2022-10-19T03:33:19;101130.41;;;12.15;77.14
30875;BME280;17581;43.222;27.924;2022-10-19T03:35:44;101150.63;;;12.21;76.57
30875;BME280;17581;43.222;27.924;2022-10-19T03:38:10;101147.22;;;12.19;77.21
30875;BME280;17581;43.222;27.924;2022-10-19T03:40:36;101144.28;;;12.11;77.20
30875;BME280;17581;43.222;27.924;2022-10-19T03:43:02;101143.41;;;12.10;77.46
30875;BME280;17581;43.222;27.924;2022-10-19T03:45:27;101149.06;;;12.07;76.82
30875;BME280;17581;43.222;27.924;2022-10-19T03:47:52;101130.88;;;11.87;76.82
30875;BME280;17581;43.222;27.924;2022-10-19T03:50:18;101143.28;;;11.89;77.21
30875;BME280;17581;43.222;27.924;2022-10-19T03:52:45;101144.44;;;11.74;77.28
30875;BME280;17581;43.222;27.924;2022-10-19T03:55:11;101146.38;;;11.61;77.58
30875;BME280;17581;43.222;27.924;2022-10-19T03:57:36;101137.66;;;11.46;78.07
30875;BME280;17581;43.222;27.924;2022-10-19T04:00:06;101137.25;;;11.40;78.68
30875;BME280;17581;43.222;27.924;2022-10-19T04:02:31;101141.78;;;11.39;78.63
30875;BME280;17581;43.222;27.924;2022-10-19T04:04:57;101125.22;;;11.33;79.06
30875;BME280;17581;43.222;27.924;2022-10-19T04:07:22;101131.34;;;11.35;78.90
30875;BME280;17581;43.222;27.924;2022-10-19T04:09:48;101126.09;;;11.33;79.06
30875;BME280;17581;43.222;27.924;2022-10-19T04:12:13;101106.59;;;11.19;78.84
30875;BME280;17581;43.222;27.924;2022-10-19T04:14:38;101104.22;;;11.14;79.29
30875;BME280;17581;43.222;27.924;2022-10-19T04:17:04;101135.75;;;11.36;79.14
30875;BME280;17581;43.222;27.924;2022-10-19T04:19:31;101118.25;;;11.30;79.45
30875;BME280;17581;43.222;27.924;2022-10-19T04:21:57;101123.03;;;11.38;79.39
30875;BME280;17581;43.222;27.924;2022-10-19T04:24:22;101096.94;;;11.27;80.00
30875;BME280;17581;43.222;27.924;2022-10-19T04:26:50;101126.97;;;11.45;80.31
30875;BME280;17581;43.222;27.924;2022-10-19T04:29:17;101124.53;;;11.53;79.91
30875;BME280;17581;43.222;27.924;2022-10-19T04:31:43;101126.16;;;11.56;79.77
30875;BME280;17581;43.222;27.924;2022-10-19T04:34:10;101120.16;;;11.52;79.76
30875;BME280;17581;43.222;27.924;2022-10-19T04:36:35;101121.59;;;11.56;80.47
30875;BME280;17581;43.222;27.924;2022-10-19T04:39:02;101091.97;;;11.45;80.88
30875;BME280;17581;43.222;27.924;2022-10-19T04:41:27;101112.31;;;11.60;81.75
30875;BME280;17581;43.222;27.924;2022-10-19T04:43:55;101093.44;;;11.49;81.60
30875;BME280;17581;43.222;27.924;2022-10-19T04:46:21;101081.91;;;11.47;82.70
30875;BME280;17581;43.222;27.924;2022-10-19T04:48:47;101105.09;;;11.61;83.34
30875;BME280;17581;43.222;27.924;2022-10-19T04:51:13;101071.50;;;11.42;82.62
30875;BME280;17581;43.222;27.924;2022-10-19T04:53:40;101070.16;;;11.37;82.54
30875;BME280;17581;43.222;27.924;2022-10-19T04:56:08;101104.97;;;11.62;83.36
30875;BME280;17581;43.222;27.924;2022-10-19T04:58:35;101106.13;;;11.71;83.06
30875;BME280;17581;43.222;27.924;2022-10-19T05:01:11;101045.94;;;11.48;83.10
30875;BME280;17581;43.222;27.924;2022-10-19T05:03:38;101101.84;;;11.79;82.51
30875;BME280;17581;43.222;27.924;2022-10-19T05:06:04;101102.81;;;11.78;82.65
30875;BME280;17581;43.222;27.924;2022-10-19T05:08:31;101064.06;;;11.57;83.26
30875;BME280;17581;43.222;27.924;2022-10-19T05:11:04;101091.66;;;11.72;83.01
30875;BME280;17581;43.222;27.924;2022-10-19T05:13:31;101067.25;;;11.62;83.11
30875;BME280;17581;43.222;27.924;2022-10-19T05:15:59;101101.59;;;11.82;82.39
30875;BME280;17581;43.222;27.924;2022-10-19T05:18:24;101089.59;;;11.75;82.01
30875;BME280;17581;43.222;27.924;2022-10-19T05:20:50;101099.88;;;11.81;82.43
30875;BME280;17581;43.222;27.924;2022-10-19T05:23:16;101102.56;;;11.81;82.21
30875;BME280;17581;43.222;27.924;2022-10-19T05:25:42;101068.72;;;11.66;81.94
30875;BME280;17581;43.222;27.924;2022-10-19T05:28:07;101103.56;;;11.91;82.27
30875;BME280;17581;43.222;27.924;2022-10-19T05:30:32;101106.00;;;11.83;82.40
30875;BME280;17581;43.222;27.924;2022-10-19T05:32:58;101104.19;;;11.95;81.96
30875;BME280;17581;43.222;27.924;2022-10-19T05:35:23;101098.41;;;11.99;82.03
30875;BME280;17581;43.222;27.924;2022-10-19T05:37:58;101106.28;;;12.14;81.54
30875;BME280;17581;43.222;27.924;2022-10-19T05:40:23;101099.78;;;12.16;81.18
30875;BME280;17581;43.222;27.924;2022-10-19T05:42:49;101103.94;;;12.31;81.84
30875;BME280;17581;43.222;27.924;2022-10-19T05:45:14;101103.19;;;12.40;81.22
30875;BME280;17581;43.222;27.924;2022-10-19T05:47:39;101074.16;;;12.22;81.23
30875;BME280;17581;43.222;27.924;2022-10-19T05:50:05;101106.72;;;12.52;80.60
30875;BME280;17581;43.222;27.924;2022-10-19T05:52:31;101114.53;;;12.66;80.17
30875;BME280;17581;43.222;27.924;2022-10-19T05:54:56;101109.13;;;12.66;79.84
30875;BME280;17581;43.222;27.924;2022-10-19T05:57:22;101103.47;;;12.80;79.28
30875;BME280;17581;43.222;27.924;2022-10-19T05:59:48;101097.00;;;12.72;78.97
30875;BME280;17581;43.222;27.924;2022-10-19T06:02:13;101114.03;;;12.72;78.97
30875;BME280;17581;43.222;27.924;2022-10-19T06:04:39;101118.91;;;12.78;79.15
30875;BME280;17581;43.222;27.924;2022-10-19T06:07:04;101113.25;;;12.81;79.37
30875;BME280;17581;43.222;27.924;2022-10-19T06:09:30;101110.97;;;12.77;79.27
30875;BME280;17581;43.222;27.924;2022-10-19T06:12:00;101109.94;;;12.89;79.40
30875;BME280;17581;43.222;27.924;2022-10-19T06:14:26;101115.78;;;12.94;79.21
30875;BME280;17581;43.222;27.924;2022-10-19T06:16:51;101107.69;;;12.94;79.04
30875;BME280;17581;43.222;27.924;2022-10-19T06:19:16;101112.59;;;13.00;78.58
30875;BME280;17581;43.222;27.924;2022-10-19T06:21:43;101085.03;;;12.85;78.71
30875;BME280;17581;43.222;27.924;2022-10-19T06:24:09;101116.63;;;13.05;78.78
30875;BME280;17581;43.222;27.924;2022-10-19T06:26:35;101059.75;;;12.86;78.46
30875;BME280;17581;43.222;27.924;2022-10-19T06:29:01;101109.03;;;13.11;79.21
30875;BME280;17581;43.222;27.924;2022-10-19T06:31:28;101104.31;;;13.24;78.88
30875;BME280;17581;43.222;27.924;2022-10-19T06:33:54;101102.97;;;13.18;78.32
30875;BME280;17581;43.222;27.924;2022-10-19T06:36:22;101103.03;;;13.28;77.79
30875;BME280;17581;43.222;27.924;2022-10-19T06:38:48;101072.63;;;13.26;77.32
30875;BME280;17581;43.222;27.924;2022-10-19T06:41:15;101102.81;;;13.51;77.05
30875;BME280;17581;43.222;27.924;2022-10-19T06:43:40;101102.28;;;13.57;76.41
30875;BME280;17581;43.222;27.924;2022-10-19T06:46:10;101063.63;;;13.46;76.12
30875;BME280;17581;43.222;27.924;2022-10-19T06:48:35;101097.25;;;13.53;76.24
30875;BME280;17581;43.222;27.924;2022-10-19T06:51:04;101082.69;;;13.65;76.03
30875;BME280;17581;43.222;27.924;2022-10-19T06:53:30;101076.94;;;13.58;75.83
30875;BME280;17581;43.222;27.924;2022-10-19T06:55:59;101073.66;;;13.55;75.83
30875;BME280;17581;43.222;27.924;2022-10-19T06:58:24;101089.81;;;13.66;75.51
30875;BME280;17581;43.222;27.924;2022-10-19T07:00:54;101088.50;;;13.60;75.61
30875;BME280;17581;43.222;27.924;2022-10-19T07:03:21;101088.09;;;13.65;75.76
30875;BME280;17581;43.222;27.924;2022-10-19T07:06:01;101091.50;;;13.67;75.91
30875;BME280;17581;43.222;27.924;2022-10-19T07:08:29;101084.47;;;13.76;76.23
30875;BME280;17581;43.222;27.924;2022-10-19T07:10:57;101081.03;;;13.74;76.74
30875;BME280;17581;43.222;27.924;2022-10-19T07:13:25;101085.03;;;13.79;76.30
30875;BME280;17581;43.222;27.924;2022-10-19T07:15:58;101070.78;;;13.77;76.23
30875;BME280;17581;43.222;27.924;2022-10-19T07:18:25;101082.47;;;13.78;75.98
30875;BME280;17581;43.222;27.924;2022-10-19T07:20:55;101080.16;;;13.73;76.14
30875;BME280;17581;43.222;27.924;2022-10-19T07:23:21;101082.03;;;13.73;76.57
30875;BME280;17581;43.222;27.924;2022-10-19T07:25:47;101040.78;;;13.50;76.56
30875;BME280;17581;43.222;27.924;2022-10-19T07:28:12;101070.34;;;13.72;76.91
30875;BME280;17581;43.222;27.924;2022-10-19T07:30:38;101070.22;;;13.74;76.95
30875;BME280;17581;43.222;27.924;2022-10-19T07:33:03;101065.66;;;13.74;77.18
30875;BME280;17581;43.222;27.924;2022-10-19T07:35:29;101067.56;;;13.83;76.97
30875;BME280;17581;43.222;27.924;2022-10-19T07:37:54;101073.41;;;13.88;77.21
30875;BME280;17581;43.222;27.924;2022-10-19T07:40:20;101051.00;;;13.97;77.17
30875;BME280;17581;43.222;27.924;2022-10-19T07:42:45;101057.00;;;14.10;77.06
30875;BME280;17581;43.222;27.924;2022-10-19T07:45:11;101062.13;;;14.13;76.91
30875;BME280;17581;43.222;27.924;2022-10-19T07:47:36;101055.78;;;14.24;76.71
30875;BME280;17581;43.222;27.924;2022-10-19T07:50:01;101046.25;;;14.30;76.50
30875;BME280;17581;43.222;27.924;2022-10-19T07:52:27;101043.13;;;14.34;76.49
30875;BME280;17581;43.222;27.924;2022-10-19T07:54:52;101029.47;;;14.36;76.40
30875;BME280;17581;43.222;27.924;2022-10-19T07:57:19;101031.63;;;14.42;76.62
30875;BME280;17581;43.222;27.924;2022-10-19T07:59:46;101041.50;;;14.52;76.65
30875;BME280;17581;43.222;27.924;2022-10-19T08:02:15;101023.09;;;14.56;75.91
30875;BME280;17581;43.222;27.924;2022-10-19T08:04:42;101017.53;;;14.48;75.89
30875;BME280;17581;43.222;27.924;2022-10-19T08:07:08;101028.66;;;14.54;76.06
30875;BME280;17581;43.222;27.924;2022-10-19T08:09:34;101032.94;;;14.57;76.26
30875;BME280;17581;43.222;27.924;2022-10-19T08:11:59;101002.88;;;14.60;76.52
30875;BME280;17581;43.222;27.924;2022-10-19T08:14:25;100994.47;;;14.63;76.27
30875;BME280;17581;43.222;27.924;2022-10-19T08:16:50;101019.13;;;14.98;75.54
30875;BME280;17581;43.222;27.924;2022-10-19T08:19:16;101001.00;;;15.08;74.79
30875;BME280;17581;43.222;27.924;2022-10-19T08:21:43;101015.81;;;15.23;74.47
30875;BME280;17581;43.222;27.924;2022-10-19T08:24:10;101008.22;;;15.37;74.27
30875;BME280;17581;43.222;27.924;2022-10-19T08:26:37;101004.94;;;15.43;73.81
30875;BME280;17581;43.222;27.924;2022-10-19T08:29:14;101010.19;;;15.63;73.25
30875;BME280;17581;43.222;27.924;2022-10-19T08:31:41;101004.28;;;15.77;72.48
30875;BME280;17581;43.222;27.924;2022-10-19T08:34:10;101004.94;;;15.89;72.16
30875;BME280;17581;43.222;27.924;2022-10-19T08:36:36;100972.84;;;15.85;72.07
30875;BME280;17581;43.222;27.924;2022-10-19T08:39:04;100995.69;;;16.09;71.01
30875;BME280;17581;43.222;27.924;2022-10-19T08:49:47;100981.56;;;16.60;69.75
30875;BME280;17581;43.222;27.924;2022-10-19T08:52:19;100981.69;;;16.76;69.40
30875;BME280;17581;43.222;27.924;2022-10-19T08:57:46;100970.88;;;17.02;67.89
30875;BME280;17581;43.222;27.924;2022-10-19T09:03:55;100970.47;;;17.40;66.09
30875;BME280;17581;43.222;27.924;2022-10-19T09:06:38;100957.41;;;17.44;65.48
30875;BME280;17581;43.222;27.924;2022-10-19T09:09:11;100964.19;;;17.66;65.10
30875;BME280;17581;43.222;27.924;2022-10-19T09:11:41;100965.59;;;17.78;64.47
30875;BME280;17581;43.222;27.924;2022-10-19T09:14:30;100960.25;;;18.02;63.44
30875;BME280;17581;43.222;27.924;2022-10-19T09:17:01;100954.34;;;18.15;62.75
30875;BME280;17581;43.222;27.924;2022-10-19T09:19:27;100957.47;;;18.36;62.53
30875;BME280;17581;43.222;27.924;2022-10-19T09:21:57;100948.16;;;18.55;61.55
30875;BME280;17581;43.222;27.924;2022-10-19T09:24:59;100944.94;;;18.67;60.42
30875;BME280;17581;43.222;27.924;2022-10-19T09:27:25;100946.13;;;18.81;59.86
30875;BME280;17581;43.222;27.924;2022-10-19T09:29:55;100927.91;;;18.81;59.02
30875;BME280;17581;43.222;27.924;2022-10-19T09:32:26;100894.72;;;18.70;59.25
30875;BME280;17581;43.222;27.924;2022-10-19T09:34:56;100886.53;;;18.78;58.45
30875;BME280;17581;43.222;27.924;2022-10-19T09:37:23;100924.28;;;19.21;58.11
30875;BME280;17581;43.222;27.924;2022-10-19T09:39:49;100927.53;;;19.25;57.34
30875;BME280;17581;43.222;27.924;2022-10-19T09:42:31;100925.28;;;19.36;56.68
30875;BME280;17581;43.222;27.924;2022-10-19T09:44:59;100899.56;;;19.31;56.42
30875;BME280;17581;43.222;27.924;2022-10-19T09:47:39;100916.25;;;19.52;56.35
30875;BME280;17581;43.222;27.924;2022-10-19T09:50:23;100911.59;;;19.69;55.47
30875;BME280;17581;43.222;27.924;2022-10-19T09:52:55;100902.69;;;19.75;55.09
30875;BME280;17581;43.222;27.924;2022-10-19T09:55:35;100900.09;;;19.81;54.53
30875;BME280;17581;43.222;27.924;2022-10-19T09:58:02;100905.31;;;19.99;53.89
30875;BME280;17581;43.222;27.924;2022-10-19T10:00:46;100903.16;;;20.09;53.24
30875;BME280;17581;43.222;27.924;2022-10-19T10:03:33;100890.84;;;20.21;52.82
30875;BME280;17581;43.222;27.924;2022-10-19T10:08:35;100876.72;;;20.40;51.41
30875;BME280;17581;43.222;27.924;2022-10-19T10:11:13;100873.94;;;20.48;50.31
30875;BME280;17581;43.222;27.924;2022-10-19T10:13:41;100862.19;;;20.62;50.01
30875;BME280;17581;43.222;27.924;2022-10-19T10:16:14;100864.78;;;20.79;48.45
30875;BME280;17581;43.222;27.924;2022-10-19T10:21:22;100847.81;;;20.98;47.52
30875;BME280;17581;43.222;27.924;2022-10-19T10:26:36;100825.31;;;20.96;47.33
30875;BME280;17581;43.222;27.924;2022-10-19T10:29:11;100839.69;;;21.27;46.88
30875;BME280;17581;43.222;27.924;2022-10-19T10:31:41;100842.91;;;21.31;46.95
30875;BME280;17581;43.222;27.924;2022-10-19T10:34:27;100800.41;;;21.35;46.15
30875;BME280;17581;43.222;27.924;2022-10-19T10:36:55;100822.09;;;21.65;46.09
30875;BME280;17581;43.222;27.924;2022-10-19T10:39:22;100822.84;;;21.74;45.48
30875;BME280;17581;43.222;27.924;2022-10-19T10:41:49;100809.13;;;21.89;45.06
30875;BME280;17581;43.222;27.924;2022-10-19T10:44:26;100799.09;;;21.96;44.42
30875;BME280;17581;43.222;27.924;2022-10-19T10:46:58;100794.13;;;22.06;44.61
30875;BME280;17581;43.222;27.924;2022-10-19T10:49:29;100795.13;;;22.19;44.33
30875;BME280;17581;43.222;27.924;2022-10-19T10:52:24;100792.78;;;22.38;42.44
30875;BME280;17581;43.222;27.924;2022-10-19T10:54:59;100787.44;;;22.57;41.83
30875;BME280;17581;43.222;27.924;2022-10-19T10:57:28;100785.47;;;22.72;41.31
30875;BME280;17581;43.222;27.924;2022-10-19T11:00:21;100781.81;;;22.87;41.41
30875;BME280;17581;43.222;27.924;2022-10-19T11:05:43;100770.59;;;23.22;40.02
30875;BME280;17581;43.222;27.924;2022-10-19T11:10:42;100761.31;;;23.64;38.58
30875;BME280;17581;43.222;27.924;2022-10-19T11:13:14;100757.09;;;23.68;37.09
30875;BME280;17581;43.222;27.924;2022-10-19T11:15:58;100744.84;;;23.64;36.27
30875;BME280;17581;43.222;27.924;2022-10-19T11:18:29;100746.31;;;23.67;35.59
30875;BME280;17581;43.222;27.924;2022-10-19T11:21:12;100733.22;;;23.62;35.69
30875;BME280;17581;43.222;27.924;2022-10-19T11:32:51;100731.75;;;23.66;37.39
30875;BME280;17581;43.222;27.924;2022-10-19T11:35:49;100741.25;;;23.70;36.93
30875;BME280;17581;43.222;27.924;2022-10-19T11:38:28;100735.34;;;23.73;37.02
30875;BME280;17581;43.222;27.924;2022-10-19T11:49:56;100737.09;;;23.88;35.33
30875;BME280;17581;43.222;27.924;2022-10-19T12:04:06;100710.94;;;24.18;27.10
30875;BME280;17581;43.222;27.924;2022-10-19T12:12:01;100703.75;;;24.30;28.65
30875;BME280;17581;43.222;27.924;2022-10-19T12:14:33;100694.00;;;24.41;26.49
30875;BME280;17581;43.222;27.924;2022-10-19T12:17:05;100702.25;;;24.41;26.23
30875;BME280;17581;43.222;27.924;2022-10-19T12:19:38;100697.59;;;24.41;26.04
30875;BME280;17581;43.222;27.924;2022-10-19T12:22:04;100705.22;;;24.39;27.05
30875;BME280;17581;43.222;27.924;2022-10-19T12:24:32;100660.59;;;24.24;26.80
30875;BME280;17581;43.222;27.924;2022-10-19T12:26:59;100678.56;;;24.40;26.57
30875;BME280;17581;43.222;27.924;2022-10-19T12:29:34;100678.56;;;24.46;27.16
30875;BME280;17581;43.222;27.924;2022-10-19T12:32:02;100678.13;;;24.49;26.76
30875;BME280;17581;43.222;27.924;2022-10-19T12:42:45;100681.75;;;24.43;27.54
30875;BME280;17581;43.222;27.924;2022-10-19T12:45:40;100676.25;;;24.36;27.86
30875;BME280;17581;43.222;27.924;2022-10-19T13:03:43;100661.88;;;24.15;28.59
30875;BME280;17581;43.222;27.924;2022-10-19T13:08:57;100656.81;;;24.12;28.80
30875;BME280;17581;43.222;27.924;2022-10-19T13:11:24;100622.56;;;23.88;28.78
30875;BME280;17581;43.222;27.924;2022-10-19T13:14:05;100649.63;;;24.11;29.13
30875;BME280;17581;43.222;27.924;2022-10-19T13:22:02;100618.09;;;23.87;28.96
30875;BME280;17581;43.222;27.924;2022-10-19T13:27:46;100649.81;;;24.03;29.68
30875;BME280;17581;43.222;27.924;2022-10-19T13:38:33;100649.56;;;23.71;30.47
30875;BME280;17581;43.222;27.924;2022-10-19T13:56:21;100639.44;;;23.65;30.33
30875;BME280;17581;43.222;27.924;2022-10-19T14:04:59;100604.50;;;23.26;30.73
30875;BME280;17581;43.222;27.924;2022-10-19T14:10:15;100634.06;;;23.38;31.18
30875;BME280;17581;43.222;27.924;2022-10-19T14:12:43;100628.34;;;23.26;31.29
30875;BME280;17581;43.222;27.924;2022-10-19T14:15:30;100635.72;;;23.25;30.80
30875;BME280;17581;43.222;27.924;2022-10-19T14:17:56;100628.50;;;23.11;31.12
30875;BME280;17581;43.222;27.924;2022-10-19T14:20:37;100609.69;;;23.02;31.04
30875;BME280;17581;43.222;27.924;2022-10-19T14:23:19;100624.25;;;23.09;31.34
30875;BME280;17581;43.222;27.924;2022-10-19T14:25:52;100627.41;;;23.06;31.61
30875;BME280;17581;43.222;27.924;2022-10-19T14:28:20;100630.38;;;23.04;31.53
30875;BME280;17581;43.222;27.924;2022-10-19T14:30:55;100636.72;;;23.05;31.83
30875;BME280;17581;43.222;27.924;2022-10-19T14:33:21;100616.56;;;22.85;31.48
30875;BME280;17581;43.222;27.924;2022-10-19T14:35:50;100637.28;;;22.94;31.88
30875;BME280;17581;43.222;27.924;2022-10-19T14:38:36;100623.94;;;22.77;31.75
30875;BME280;17581;43.222;27.924;2022-10-19T14:41:05;100627.09;;;22.74;31.96
30875;BME280;17581;43.222;27.924;2022-10-19T14:43:41;100623.63;;;22.59;32.25
30875;BME280;17581;43.222;27.924;2022-10-19T14:48:33;100625.41;;;22.46;32.60
30875;BME280;17581;43.222;27.924;2022-10-19T14:51:00;100630.84;;;22.39;32.57
30875;BME280;17581;43.222;27.924;2022-10-19T14:53:34;100628.28;;;22.31;33.05
30875;BME280;17581;43.222;27.924;2022-10-19T14:56:24;100631.78;;;22.18;33.12
30875;BME280;17581;43.222;27.924;2022-10-19T14:59:03;100633.81;;;22.10;33.47
30875;BME280;17581;43.222;27.924;2022-10-19T15:01:29;100624.47;;;21.98;33.67
30875;BME280;17581;43.222;27.924;2022-10-19T15:03:55;100629.50;;;21.94;33.81
30875;BME280;17581;43.222;27.924;2022-10-19T15:06:27;100625.16;;;21.85;34.08
30875;BME280;17581;43.222;27.924;2022-10-19T15:08:54;100631.81;;;21.76;34.40
30875;BME280;17581;43.222;27.924;2022-10-19T15:11:27;100628.56;;;21.66;34.88
30875;BME280;17581;43.222;27.924;2022-10-19T15:14:00;100637.78;;;21.58;34.93
30875;BME280;17581;43.222;27.924;2022-10-19T15:19:05;100597.81;;;21.22;35.13
30875;BME280;17581;43.222;27.924;2022-10-19T15:21:35;100638.72;;;21.30;35.38
30875;BME280;17581;43.222;27.924;2022-10-19T15:24:25;100639.03;;;21.20;35.74
30875;BME280;17581;43.222;27.924;2022-10-19T15:26:53;100640.84;;;21.13;35.82
30875;BME280;17581;43.222;27.924;2022-10-19T15:29:28;100650.63;;;21.07;36.28
30875;BME280;17581;43.222;27.924;2022-10-19T15:31:54;100653.66;;;20.98;36.77
30875;BME280;17581;43.222;27.924;2022-10-19T15:34:28;100657.94;;;20.86;36.94